logo dgac
Viernes 12 de Abril del 2024
Buscar por aerodromo o helipuerto
Ingrese nombre de aeródromo, localidad o designador OACI:

Aeródromo: Capitán Fuentes Martinez (PUB) (SCFM)

Ubicación: Porvenir, XII Región, Chile (53º 15' 13'' S, 70º 19' 09'' W) Ver ubicación en el mapa

Pistas

Luces
Orientación Dimensión Pendiente Superficie Resistencia APCH THR RWY PAPI
03/21 960 x 30 0,40 ASPH 20.000 kg No
09/27 2500 x 30 0,30 ASPH PCN 12 F/Y/C/U No
Horas de operación HJ
Elevación 32 m / 104 ft
Otra Información Adm : DGAC.
Uso : PUB
Ubicado 5 km NE Porvenir
TEL/FAX (61) 2745500/2745501 CEL (09) 91581768
email : aro.porvenir@dgac.gob.cl



Otra información ver AIP-Chile Volumen I AD 3.9-15.7-P
CCCM/FCCV Descargar CCCM/FCCV
andera de Chile
Mapa de Capitán Fuentes Martinez (PUB) (SCFM)

Último METAR

METAR SCFM 121200Z 16007KT 9999 FEW030 BKN100 08/05 Q1020

Último TAF

TAF SCFM 121002Z 1212/1300 24018KT 9999 FEW020 TN06/1300Z TX12/1218Z TEMPO 1218/1222 15009KT BECMG 1222/1300 34012KT SCT040

Últimas fotos cámaras

Imagen aerodromo Capitán Fuentes Martinez (PUB) (SCFM) Oeste tomada el 12-04-2024 12:22:12 Imagen aerodromo Capitán Fuentes Martinez (PUB) (SCFM) Este tomada el 12-04-2024 12:19:42

Último NOTAM

C1653/24 NOTAMN Q)SCCZ/QLBAS/V/M/A/000/999/5315S07019W005 A)SCFM B)2404111120 C)2405102359 E)ABN U/S